createdAt,value
2018-08-06T00:04:06.621Z,100657.37
2018-08-06T00:09:10.116Z,100657.95
2018-08-06T00:14:13.869Z,100656.38
2018-08-06T00:19:17.417Z,100653.55
2018-08-06T00:24:20.993Z,100661.59
2018-08-06T00:29:24.517Z,100664.84
2018-08-06T00:34:28.083Z,100657.33
2018-08-06T00:39:31.614Z,100651.25
2018-08-06T00:44:35.062Z,100649.34
2018-08-06T00:49:38.612Z,100643.75
2018-08-06T00:54:42.085Z,100639.48
2018-08-06T00:59:45.558Z,100630.92
2018-08-06T01:04:49.109Z,100631.32
2018-08-06T01:09:52.677Z,100620.63
2018-08-06T01:14:56.246Z,100629.71
2018-08-06T01:19:59.809Z,100624.12
2018-08-06T01:25:03.355Z,100624.34
2018-08-06T01:30:09.257Z,100621.55
2018-08-06T01:35:12.984Z,100620.08
2018-08-06T01:40:16.488Z,100619.47
2018-08-06T01:45:19.979Z,100622.84
2018-08-06T01:50:23.525Z,100612.88
2018-08-06T01:55:27.037Z,100606.45
2018-08-06T02:00:30.519Z,100600.78
2018-08-06T02:05:34.121Z,100610.41
2018-08-06T02:10:37.640Z,100606.68
2018-08-06T02:15:41.142Z,100604.94
2018-08-06T02:20:44.701Z,100604.16
2018-08-06T02:25:48.188Z,100602.71
2018-08-06T02:30:51.764Z,100602.63
2018-08-06T02:35:55.322Z,100597.17
2018-08-06T02:40:58.805Z,100600.75
2018-08-06T02:46:02.332Z,100597.23
2018-08-06T02:51:05.912Z,100601.20
2018-08-06T02:56:09.486Z,100605.84
2018-08-06T03:01:13.018Z,100600.86
2018-08-06T03:06:16.636Z,100594.17
2018-08-06T03:11:20.157Z,100596.00
2018-08-06T03:16:23.698Z,100594.27
2018-08-06T03:21:27.266Z,100594.27
2018-08-06T03:26:30.907Z,100593.59
2018-08-06T03:31:34.442Z,100595.88
2018-08-06T03:36:37.953Z,100601.23
2018-08-06T03:41:41.386Z,100598.05
2018-08-06T03:46:44.940Z,100593.11
2018-08-06T03:51:48.502Z,100593.39
2018-08-06T03:56:52.037Z,100590.17
2018-08-06T04:01:55.610Z,100595.17
2018-08-06T04:06:59.164Z,100598.52
2018-08-06T04:12:02.839Z,100603.33
2018-08-06T04:17:06.570Z,100600.79
2018-08-06T04:22:10.123Z,100605.76
2018-08-06T04:27:13.715Z,100615.70
2018-08-06T04:32:17.249Z,100612.36
2018-08-06T04:37:20.785Z,100619.68
2018-08-06T04:42:24.422Z,100620.56
2018-08-06T04:47:27.918Z,100620.27
2018-08-06T04:52:31.469Z,100628.55
2018-08-06T04:57:35.021Z,100634.47
2018-08-06T05:02:38.481Z,100631.68
2018-08-06T05:07:42.016Z,100636.45
2018-08-06T05:12:45.627Z,100636.98
2018-08-06T05:17:49.111Z,100639.84
2018-08-06T05:22:52.565Z,100639.84
2018-08-06T05:27:56.088Z,100639.05
2018-08-06T05:32:59.625Z,100643.34
2018-08-06T05:38:03.129Z,100650.98
2018-08-06T05:43:06.873Z,100658.13
2018-08-06T05:48:10.452Z,100660.91
2018-08-06T05:53:14.038Z,100665.34
2018-08-06T05:58:17.680Z,100663.52
2018-08-06T06:03:21.277Z,100664.06
2018-08-06T06:08:24.849Z,100665.19
2018-08-06T06:13:28.526Z,100667.39
2018-08-06T06:18:32.142Z,100669.81
2018-08-06T06:23:35.593Z,100664.16
2018-08-06T06:28:39.185Z,100664.00
2018-08-06T06:33:42.846Z,100673.20
2018-08-06T06:38:46.604Z,100664.06
2018-08-06T06:43:50.140Z,100657.10
2018-08-06T06:48:54.195Z,100666.63
2018-08-06T06:53:57.682Z,100662.27
2018-08-06T06:59:01.225Z,100658.80
2018-08-06T07:04:04.781Z,100655.64
2018-08-06T07:09:09.798Z,100664.09
2018-08-06T07:14:13.374Z,100655.72
2018-08-06T07:19:17.264Z,100657.11
2018-08-06T07:24:20.818Z,100659.19
2018-08-06T07:29:24.362Z,100651.52
2018-08-06T07:34:27.879Z,100651.59
2018-08-06T07:39:31.430Z,100653.26
2018-08-06T07:44:34.967Z,100650.35
2018-08-06T07:49:38.583Z,100653.82
2018-08-06T07:54:42.013Z,100652.17
2018-08-06T07:59:45.642Z,100643.97
2018-08-06T08:04:49.192Z,100637.61
2018-08-06T08:09:52.671Z,100630.52
2018-08-06T08:14:56.256Z,100625.62
2018-08-06T08:19:59.841Z,100624.30
2018-08-06T08:25:04.544Z,100623.42
2018-08-06T08:30:09.060Z,100618.50
2018-08-06T08:35:13.573Z,100615.27
2018-08-06T08:40:18.792Z,100601.31
2018-08-06T08:45:22.483Z,100609.86
2018-08-06T08:50:26.127Z,100609.63
2018-08-06T08:55:29.788Z,100609.25
2018-08-06T09:00:33.344Z,100605.00
2018-08-06T09:05:37.391Z,100601.66
2018-08-06T09:10:40.829Z,100589.84
2018-08-06T09:15:44.487Z,100581.77
2018-08-06T09:20:48.165Z,100580.28
2018-08-06T09:25:51.751Z,100572.25
2018-08-06T09:30:55.332Z,100576.48
2018-08-06T09:35:58.865Z,100560.51
2018-08-06T09:41:02.510Z,100561.00
2018-08-06T09:46:06.525Z,100563.52
2018-08-06T09:51:10.094Z,100562.30
2018-08-06T09:56:13.653Z,100557.32
2018-08-06T10:01:22.435Z,100542.56
2018-08-06T10:06:26.053Z,100539.84
2018-08-06T10:11:29.480Z,100536.27
2018-08-06T10:16:33.005Z,100534.74
2018-08-06T10:21:36.873Z,100517.70
2018-08-06T10:26:40.468Z,100508.23
2018-08-06T10:31:44.013Z,100508.23
2018-08-06T10:36:47.614Z,100504.22
2018-08-06T10:41:51.200Z,100498.55
2018-08-06T10:46:54.613Z,100484.75
2018-08-06T10:51:58.097Z,100475.28
2018-08-06T10:57:01.621Z,100473.27
2018-08-06T11:02:05.245Z,100465.39
2018-08-06T11:07:08.874Z,100462.15
2018-08-06T11:12:12.517Z,100457.34
2018-08-06T11:17:16.134Z,100454.86
2018-08-06T11:22:19.822Z,100443.23
2018-08-06T11:27:23.573Z,100433.78
2018-08-06T11:32:27.296Z,100426.52
2018-08-06T11:37:31.070Z,100418.44
2018-08-06T11:42:34.702Z,100418.61
2018-08-06T11:47:38.525Z,100411.00
2018-08-06T12:03:57.976Z,100401.25
2018-08-06T12:09:01.812Z,100401.92
2018-08-06T12:14:05.706Z,100372.81
2018-08-06T12:19:09.381Z,100385.00
2018-08-06T12:24:13.078Z,100381.14
2018-08-06T12:29:23.580Z,100383.66
2018-08-06T12:34:27.151Z,100375.44
2018-08-06T12:39:30.749Z,100363.77
2018-08-06T12:44:34.392Z,100357.56
2018-08-06T12:49:46.645Z,100367.68
2018-08-06T12:54:54.891Z,100360.23
2018-08-06T12:59:59.362Z,100353.41
2018-08-06T13:05:07.080Z,100351.56
2018-08-06T13:10:10.772Z,100343.31
2018-08-06T13:15:15.207Z,100333.69
2018-08-06T13:20:18.784Z,100339.28
2018-08-06T13:25:22.498Z,100321.27
2018-08-06T13:30:36.204Z,100323.62
2018-08-06T13:35:49.349Z,100308.56
2018-08-06T13:40:58.890Z,100302.97
2018-08-06T14:12:49.857Z,100267.52
2018-08-06T14:17:53.729Z,100261.65
2018-08-06T14:22:57.332Z,100255.97
2018-08-06T14:28:01.305Z,100250.58
2018-08-06T14:33:05.157Z,100236.76
2018-08-06T14:38:08.765Z,100239.72
2018-08-06T14:43:12.654Z,100228.20
2018-08-06T14:48:16.351Z,100213.92
2018-08-06T14:53:20.002Z,100213.63
2018-08-06T14:58:23.602Z,100205.56
2018-08-06T15:03:27.485Z,100208.03
2018-08-06T15:08:31.546Z,100210.70
2018-08-06T15:13:35.113Z,100206.04
2018-08-06T15:18:38.658Z,100201.06
2018-08-06T15:23:42.193Z,100198.42
2018-08-06T15:28:45.895Z,100188.30
2018-08-06T15:33:49.902Z,100191.88
2018-08-06T15:38:53.566Z,100181.62
2018-08-06T15:43:57.200Z,100187.39
2018-08-06T15:49:00.862Z,100177.30
2018-08-06T15:54:05.126Z,100173.71
2018-08-06T15:59:08.961Z,100168.59
2018-08-06T16:04:12.706Z,100165.00
2018-08-06T16:09:16.247Z,100167.52
2018-08-06T16:14:19.969Z,100159.73
2018-08-06T16:19:23.537Z,100151.49
2018-08-06T16:24:27.229Z,100144.65
2018-08-06T16:29:30.745Z,100135.63
2018-08-06T16:34:34.453Z,100137.65
2018-08-06T16:39:38.218Z,100132.52
2018-08-06T16:44:41.779Z,100129.11
2018-08-06T16:49:45.543Z,100124.74
2018-08-06T16:54:49.237Z,100118.05
2018-08-06T16:59:52.835Z,100123.64
2018-08-06T17:04:56.358Z,100116.64
2018-08-06T17:10:00.744Z,100112.60
2018-08-06T17:15:04.463Z,100110.42
2018-08-06T17:20:12.888Z,100110.88
2018-08-06T17:25:16.717Z,100111.20
2018-08-06T17:30:20.539Z,100116.80
2018-08-06T17:35:24.300Z,100108.70
2018-08-06T17:40:28.113Z,100102.97
2018-08-06T17:45:31.885Z,100102.64
2018-08-06T17:50:35.995Z,100088.80
2018-08-06T17:55:40.617Z,100084.44
2018-08-06T18:00:44.806Z,100090.19
2018-08-06T18:05:48.473Z,100090.19
2018-08-06T18:10:52.268Z,100093.30
2018-08-06T18:15:56.159Z,100088.17
2018-08-06T18:21:00.123Z,100075.71
2018-08-06T18:26:04.356Z,100077.43
2018-08-06T18:31:08.405Z,100088.63
2018-08-06T18:36:11.926Z,100086.30
2018-08-06T18:41:16.616Z,100089.57
2018-08-06T18:46:20.155Z,100100.45
2018-08-06T18:51:23.782Z,100093.00
2018-08-06T18:56:27.334Z,100092.83
2018-08-06T19:01:31.020Z,100102.02
2018-08-06T19:06:34.895Z,100102.02
2018-08-06T19:11:38.569Z,100100.94
2018-08-06T19:16:42.397Z,100105.92
2018-08-06T19:21:46.564Z,100110.70
2018-08-06T19:26:50.758Z,100110.23
2018-08-06T19:31:55.302Z,100111.69
2018-08-06T19:37:04.814Z,100110.08
2018-08-06T19:42:08.379Z,100109.01
2018-08-06T19:47:12.643Z,100118.48
2018-08-06T19:52:16.385Z,100111.80
2018-08-06T19:57:20.130Z,100116.45
2018-08-06T20:02:23.819Z,100115.67
2018-08-06T20:07:27.333Z,100111.19
2018-08-06T20:12:31.582Z,100104.03
2018-08-06T20:17:35.122Z,100101.39
2018-08-06T20:22:38.770Z,100103.55
2018-08-06T20:27:42.350Z,100110.41
2018-08-06T20:32:45.834Z,100102.47
2018-08-06T20:37:49.428Z,100101.70
2018-08-06T20:42:52.954Z,100105.27
2018-08-06T20:47:56.501Z,100100.58
2018-08-06T20:53:00.608Z,100105.37
2018-08-06T20:58:04.346Z,100108.63
2018-08-06T21:03:08.132Z,100101.73
2018-08-06T21:08:11.668Z,100112.98
2018-08-06T21:13:15.165Z,100107.25
2018-08-06T21:18:18.682Z,100108.16
2018-08-06T21:23:22.246Z,100108.65
2018-08-06T21:28:25.985Z,100108.03
2018-08-06T21:33:29.577Z,100103.67
2018-08-06T21:38:33.192Z,100100.85
2018-08-06T21:43:36.880Z,100104.27
2018-08-06T21:48:40.617Z,100106.61
2018-08-06T21:53:44.343Z,100098.37
2018-08-06T21:58:47.887Z,100101.31
2018-08-06T22:03:51.567Z,100091.38
2018-08-06T22:08:55.081Z,100087.78
2018-08-06T22:13:58.678Z,100085.57
2018-08-06T22:19:02.324Z,100093.05
2018-08-06T22:24:06.433Z,100081.21
2018-08-06T22:29:10.409Z,100080.48
2018-08-06T22:34:14.319Z,100075.97
2018-08-06T22:39:18.118Z,100073.17
2018-08-06T22:44:21.945Z,100063.22
2018-08-06T22:49:25.669Z,100067.28
2018-08-06T22:54:29.232Z,100070.86
2018-08-06T22:59:32.970Z,100072.55
2018-08-06T23:04:36.622Z,100069.00
2018-08-06T23:09:40.261Z,100072.09
2018-08-06T23:14:43.801Z,100066.34
2018-08-06T23:19:47.377Z,100065.88
2018-08-06T23:24:51.013Z,100054.37
2018-08-06T23:29:54.609Z,100054.98
2018-08-06T23:34:58.253Z,100044.09
2018-08-06T23:40:01.867Z,100043.77
2018-08-06T23:45:07.014Z,100043.77
2018-08-06T23:50:12.534Z,100035.38
2018-08-06T23:55:17.828Z,100030.24
